Antonio Y Angelita — EA5637 — position and weather

sailwx.info

Track history (hours):
 
Tides and Currents Weather Stations Pressure Air Temp Water Temp Dewpoint Dewpoint Depression Visibility Wind Speed Wind Dir Waves Ship Positions

Antonio Y Angelita

Last reported at 2017-Oct-22 19:19 UTC. Time now 2017-Oct-23 02:39 UTC.
Position N 39°34' E 002°38'.

Length 19 m; draft 3 m.

Type: Fishing. MMSI: 224031340.

Date/timePositionNaut miles runAvg speedWind from/ knotsBaromVisibWave heightAir tempDewpointWater temp
2017-Oct-22 19:19N 39°34' E 002°38'0 0.0
2017-Oct-22 19:00N 39°34' E 002°38'0 0.0
2017-Oct-22 18:30N 39°34' E 002°38'0 0.0
2017-Oct-22 18:00N 39°34' E 002°38'0 0.0
2017-Oct-22 17:30N 39°34' E 002°38'0 0.0
2017-Oct-22 17:00N 39°34' E 002°38'0 0.0
2017-Oct-22 16:30N 39°34' E 002°38'0 0.0
2017-Oct-22 13:14N 39°34' E 002°38'1 3.2
2017-Oct-22 13:00N 39°33' E 002°38'3 6.1
2017-Oct-22 12:30N 39°30' E 002°40'3 5.7
2017-Oct-22 12:00N 39°28' E 002°40'3 5.7
2017-Oct-22 11:30N 39°25' E 002°41'3 5.8
2017-Oct-22 11:00N 39°22' E 002°42'3 5.3
2017-Oct-22 10:27N 39°19' E 002°41'0 0.8
2017-Oct-22 10:00N 39°19' E 002°41'1 1.0
2017-Oct-22 09:30N 39°19' E 002°42'0 1.0
2017-Oct-22 09:00N 39°19' E 002°43'1 1.1
2017-Oct-22 08:30N 39°19' E 002°43'1 1.0
2017-Oct-22 07:58N 39°19' E 002°44'0 1.0
2017-Oct-22 07:30N 39°19' E 002°45'0 0.9
2017-Oct-22 07:00N 39°19' E 002°45'0 0.9
2017-Oct-22 06:30N 39°19' E 002°46'5 3.5
2017-Oct-22 04:56N 39°15' E 002°41'60 8.2
2017-Oct-21 21:37N 38°51' E 001°31'112 9.4
2017-Oct-21 09:42N 37°44' W 000°24'2 8.7
2017-Oct-21 09:30N 37°43' W 000°25'4 8.8
2017-Oct-21 09:00N 37°41' W 000°30'4 8.9
2017-Oct-21 08:30N 37°38' W 000°35'11 8.8
2017-Oct-21 07:19N 37°32' W 000°45'3 8.6
2017-Oct-21 07:00N 37°30' W 000°48'  
Track history (hours):
 
Tides and Currents Weather Stations Pressure Air Temp Water Temp Dewpoint Dewpoint Depression Visibility Wind Speed Wind Dir Waves Ship Positions

Antonio Y Angelita

Last reported at 2017-Oct-22 19:19 UTC. Time now 2017-Oct-23 02:39 UTC.
Position N 39°34' E 002°38'.

Length 19 m; draft 3 m.

Type: Fishing. MMSI: 224031340.

Date/timePositionNaut miles runAvg speedWind from/ knotsBaromVisibWave heightAir tempDewpointWater temp
2017-Oct-22 19:19N 39°34' E 002°38'0 0.0
2017-Oct-22 19:00N 39°34' E 002°38'0 0.0
2017-Oct-22 18:30N 39°34' E 002°38'0 0.0
2017-Oct-22 18:00N 39°34' E 002°38'0 0.0
2017-Oct-22 17:30N 39°34' E 002°38'0 0.0
2017-Oct-22 17:00N 39°34' E 002°38'0 0.0
2017-Oct-22 16:30N 39°34' E 002°38'0 0.0
2017-Oct-22 13:14N 39°34' E 002°38'1 3.2
2017-Oct-22 13:00N 39°33' E 002°38'3 6.1
2017-Oct-22 12:30N 39°30' E 002°40'3 5.7
2017-Oct-22 12:00N 39°28' E 002°40'3 5.7
2017-Oct-22 11:30N 39°25' E 002°41'3 5.8
2017-Oct-22 11:00N 39°22' E 002°42'3 5.3
2017-Oct-22 10:27N 39°19' E 002°41'0 0.8
2017-Oct-22 10:00N 39°19' E 002°41'1 1.0
2017-Oct-22 09:30N 39°19' E 002°42'0 1.0
2017-Oct-22 09:00N 39°19' E 002°43'1 1.1
2017-Oct-22 08:30N 39°19' E 002°43'1 1.0
2017-Oct-22 07:58N 39°19' E 002°44'0 1.0
2017-Oct-22 07:30N 39°19' E 002°45'0 0.9
2017-Oct-22 07:00N 39°19' E 002°45'0 0.9
2017-Oct-22 06:30N 39°19' E 002°46'5 3.5
2017-Oct-22 04:56N 39°15' E 002°41'60 8.2
2017-Oct-21 21:37N 38°51' E 001°31'112 9.4
2017-Oct-21 09:42N 37°44' W 000°24'2 8.7
2017-Oct-21 09:30N 37°43' W 000°25'4 8.8
2017-Oct-21 09:00N 37°41' W 000°30'4 8.9
2017-Oct-21 08:30N 37°38' W 000°35'11 8.8
2017-Oct-21 07:19N 37°32' W 000°45'3 8.6
2017-Oct-21 07:00N 37°30' W 000°48'  

Dump ship's entire track history